This is the latest recevied weather packets stored in our database for station/object IW4DZV-13. If no packets are shown the sender has not sent any weather packets the latest 10 day(s).
| Time | Temp. | Humidity | Pressure | Rain* | Wind** | Luminosity | Snow |
|---|---|---|---|---|---|---|---|
| 1787728562 | 24.44° C | 81% | 1015.9 hPa | 0 mm | - | 404 W/m² | - |
| 1787727656 | 24.44° C | 82% | 1015.8 hPa | 0 mm | - | 366 W/m² | - |
| 1787726751 | 23.33° C | 86% | 1015.8 hPa | 0 mm | - | 302 W/m² | - |
| 1787725847 | 22.22° C | 89% | 1015.7 hPa | 0 mm | - | 258 W/m² | - |
| 1787724945 | 21.11° C | 91% | 1015.7 hPa | 0 mm | - | 213 W/m² | - |
| 1787724041 | 21.11° C | 92% | 1015.7 hPa | 0 mm | - | 169 W/m² | - |
| 1787723137 | 20.56° C | 92% | 1015.7 hPa | 0 mm | - | 121 W/m² | - |
| 1787722237 | 20° C | 92% | 1015.7 hPa | 0 mm | - | 62 W/m² | - |
| 1787721337 | 20° C | 92% | 1015.5 hPa | 0 mm | - | 39 W/m² | - |
| 1787720435 | 19.44° C | 92% | 1015.2 hPa | 0 mm | - | 19 W/m² | - |
| 1787719526 | 19.44° C | 92% | 1014.9 hPa | 0 mm | - | 11 W/m² | - |
| 1787718625 | 19.44° C | 92% | 1014.8 hPa | 0 mm | - | 0 W/m² | - |
| 1787717725 | 19.44° C | 91% | 1014.8 hPa | 0 mm | - | 0 W/m² | - |
| 1787716823 | 20° C | 91% | 1014.8 hPa | 0 mm | - | 0 W/m² | - |
| 1787715936 | 20° C | 91% | 1014.6 hPa | 0 mm | - | 0 W/m² | - |
| 1787715020 | 20° C | 92% | 1014.4 hPa | 0 mm | - | 0 W/m² | - |
| 1787714118 | 20.56° C | 92% | 1014.4 hPa | 0 mm | - | 0 W/m² | - |
| 1787713218 | 20.56° C | 91% | 1014.3 hPa | 0 mm | - | 0 W/m² | - |
| 1787712317 | 20.56° C | 91% | 1014.3 hPa | 0 mm | - | 0 W/m² | - |
| 1787711415 | 20° C | 91% | 1014.2 hPa | 0 mm | - | 0 W/m² | - |
| 1787710515 | 20.56° C | 91% | 1014.2 hPa | 0 mm | - | 0 W/m² | - |
| 1787709614 | 20.56° C | 91% | 1014.1 hPa | 0 mm | - | 0 W/m² | - |
| 1787708712 | 20.56° C | 91% | 1014.1 hPa | 0 mm | - | 0 W/m² | - |
| 1787707812 | 20.56° C | 91% | 1013.9 hPa | 0 mm | - | 0 W/m² | - |
| 1787706909 | 20.56° C | 90% | 1013.7 hPa | 0 mm | - | 0 W/m² | - |
* Rain since midnight (hover to see other rain measurements)
** Current wind speed in m/s (hover to see current wind gust speed)